createdAt,value
2023-03-25T00:01:44.438Z,77.56
2023-03-25T00:04:12.438Z,77.08
2023-03-25T00:06:39.421Z,75.80
2023-03-25T00:09:08.264Z,77.31
2023-03-25T00:11:35.073Z,76.14
2023-03-25T00:14:01.845Z,74.71
2023-03-25T00:16:31.583Z,76.56
2023-03-25T00:18:58.549Z,77.31
2023-03-25T00:21:26.245Z,74.98
2023-03-25T00:23:53.845Z,76.22
2023-03-25T00:26:26.300Z,76.31
2023-03-25T00:28:59.113Z,78.78
2023-03-25T00:31:26.401Z,75.90
2023-03-25T00:33:55.084Z,76.74
2023-03-25T00:36:24.510Z,74.77
2023-03-25T00:38:52.017Z,76.17
2023-03-25T00:41:24.100Z,74.01
2023-03-25T00:43:58.829Z,75.28
2023-03-25T00:46:28.233Z,77.60
2023-03-25T00:48:55.491Z,74.95
2023-03-25T00:51:22.983Z,73.93
2023-03-25T00:53:55.370Z,74.56
2023-03-25T00:56:23.946Z,74.09
2023-03-25T00:58:51.675Z,75.53
2023-03-25T01:01:25.086Z,76.58
2023-03-25T01:03:51.918Z,76.42
2023-03-25T01:06:18.731Z,74.82
2023-03-25T01:08:46.522Z,73.85
2023-03-25T01:11:25.869Z,71.82
2023-03-25T01:13:55.836Z,71.17
2023-03-25T01:16:25.566Z,70.89
2023-03-25T01:18:52.620Z,72.02
2023-03-25T01:21:21.034Z,73.05
2023-03-25T01:23:54.652Z,72.91
2023-03-25T01:26:22.313Z,72.81
2023-03-25T01:28:50.246Z,70.50
2023-03-25T01:31:17.534Z,69.64
2023-03-25T01:33:47.044Z,72.41
2023-03-25T01:36:17.560Z,76.36
2023-03-25T01:38:54.689Z,76.03
2023-03-25T01:41:22.622Z,76.89
2023-03-25T01:44:29.250Z,77.13
2023-03-25T01:46:56.672Z,78.58
2023-03-25T01:49:51.408Z,75.65
2023-03-25T01:52:26.125Z,75.57
2023-03-25T01:54:54.037Z,76.01
2023-03-25T01:57:21.571Z,75.86
2023-03-25T01:59:48.834Z,74.02
2023-03-25T02:02:17.800Z,74.43
2023-03-25T02:04:57.055Z,71.94
2023-03-25T02:07:27.340Z,72.92
2023-03-25T02:09:54.466Z,72.79
2023-03-25T02:12:21.489Z,74.51
2023-03-25T02:14:50.585Z,72.35
2023-03-25T02:17:21.460Z,71.45
2023-03-25T02:20:03.651Z,72.52
2023-03-25T02:23:02.870Z,73.05
2023-03-25T02:25:46.965Z,73.95
2023-03-25T02:28:57.358Z,74.43
2023-03-25T02:31:55.785Z,74.45
2023-03-25T02:34:42.510Z,74.90
2023-03-25T02:37:48.765Z,76.21
2023-03-25T02:40:50.901Z,77.68
2023-03-25T02:43:55.779Z,77.59
2023-03-25T02:46:25.925Z,77.10
2023-03-25T02:48:58.106Z,76.24
2023-03-25T02:51:30.350Z,76.23
2023-03-25T02:54:07.898Z,76.05
2023-03-25T02:56:35.694Z,75.22
2023-03-25T02:59:03.950Z,75.86
2023-03-25T03:01:32.062Z,75.33
2023-03-25T03:04:00.501Z,74.72
2023-03-25T03:06:27.604Z,75.02
2023-03-25T03:09:01.108Z,74.62
2023-03-25T03:11:50.031Z,74.66
2023-03-25T03:14:57.146Z,73.50
2023-03-25T03:17:46.059Z,73.44
2023-03-25T03:20:38.968Z,72.64
2023-03-25T03:23:33.071Z,72.45
2023-03-25T03:26:13.641Z,73.83
2023-03-25T03:28:56.629Z,73.60
2023-03-25T03:31:49.708Z,74.35
2023-03-25T03:34:21.481Z,74.22
2023-03-25T03:36:50.113Z,75.11
2023-03-25T03:39:24.186Z,74.78
2023-03-25T03:41:55.765Z,74.70
2023-03-25T03:44:25.881Z,75.18
2023-03-25T03:46:59.064Z,74.47
2023-03-25T03:49:34.279Z,76.23
2023-03-25T03:52:29.528Z,76.47
2023-03-25T03:55:06.681Z,75.36
2023-03-25T03:57:45.275Z,76.10
2023-03-25T04:00:21.331Z,76.33
2023-03-25T04:02:53.211Z,75.67
2023-03-25T04:05:20.299Z,74.03
2023-03-25T04:07:59.139Z,74.03
2023-03-25T04:10:39.941Z,71.34
2023-03-25T04:13:12.468Z,72.10
2023-03-25T04:15:41.111Z,72.57
2023-03-25T04:18:08.050Z,73.28
2023-03-25T04:20:36.003Z,71.00
2023-03-25T04:23:04.078Z,71.26
2023-03-25T04:25:33.166Z,71.78
2023-03-25T04:28:04.352Z,71.07
2023-03-25T04:30:34.731Z,71.48
2023-03-25T04:33:05.278Z,71.90
2023-03-25T04:35:34.963Z,72.75
2023-03-25T04:38:04.284Z,72.69
2023-03-25T04:40:31.113Z,73.86
2023-03-25T04:42:59.783Z,73.93
2023-03-25T04:45:26.871Z,74.31
2023-03-25T04:47:54.374Z,74.01
2023-03-25T04:50:28.057Z,73.96
2023-03-25T04:52:54.814Z,74.16
2023-03-25T04:55:22.382Z,74.12
2023-03-25T04:57:55.878Z,73.43
2023-03-25T05:00:27.330Z,73.80
2023-03-25T05:02:55.161Z,74.06
2023-03-25T05:05:24.654Z,72.80
2023-03-25T05:07:53.606Z,72.92
2023-03-25T05:10:22.640Z,73.09
2023-03-25T05:12:50.377Z,73.37
2023-03-25T05:15:19.182Z,72.29
2023-03-25T05:17:46.995Z,71.98
2023-03-25T05:20:15.604Z,71.87
2023-03-25T05:22:42.377Z,72.56
2023-03-25T05:25:18.133Z,72.64
2023-03-25T05:27:47.794Z,71.53
2023-03-25T05:30:16.581Z,71.12
2023-03-25T05:32:44.734Z,72.05
2023-03-25T05:35:12.956Z,70.43
2023-03-25T05:37:41.960Z,71.79
2023-03-25T05:40:14.619Z,71.25
2023-03-25T05:42:50.466Z,71.41
2023-03-25T05:45:18.783Z,71.08
2023-03-25T05:47:45.855Z,71.65
2023-03-25T05:50:16.020Z,72.51
2023-03-25T05:52:43.280Z,71.93
2023-03-25T05:55:15.990Z,71.33
2023-03-25T05:57:43.299Z,72.67
2023-03-25T06:00:11.119Z,73.11
2023-03-25T06:02:37.921Z,73.17
2023-03-25T06:05:10.016Z,71.36
2023-03-25T06:07:43.819Z,72.48
2023-03-25T06:10:11.743Z,72.02
2023-03-25T06:12:39.039Z,69.71
2023-03-25T06:15:11.260Z,71.26
2023-03-25T06:17:39.099Z,71.21
2023-03-25T06:20:08.421Z,71.41
2023-03-25T06:22:36.851Z,69.42
2023-03-25T06:25:08.638Z,69.24
2023-03-25T06:27:36.573Z,68.58
2023-03-25T06:30:06.413Z,69.69
2023-03-25T06:32:33.907Z,69.96
2023-03-25T06:35:03.951Z,67.77
2023-03-25T06:37:31.931Z,68.93
2023-03-25T06:39:59.426Z,69.88
2023-03-25T06:42:28.096Z,68.80
2023-03-25T06:44:56.042Z,68.79
2023-03-25T06:47:35.335Z,68.28
2023-03-25T06:50:02.920Z,67.64
2023-03-25T06:52:32.829Z,67.79
2023-03-25T06:55:02.365Z,67.78
2023-03-25T06:57:29.251Z,69.14
2023-03-25T06:59:56.051Z,69.14
2023-03-25T07:02:33.222Z,69.61
2023-03-25T07:05:01.285Z,70.03
2023-03-25T07:07:28.382Z,69.69
2023-03-25T07:09:55.270Z,69.42
2023-03-25T07:12:22.794Z,70.06
2023-03-25T07:14:58.812Z,69.75
2023-03-25T07:17:29.329Z,68.35
2023-03-25T07:19:56.144Z,69.01
2023-03-25T07:22:23.245Z,69.32
2023-03-25T07:24:52.116Z,67.95
2023-03-25T07:27:21.302Z,69.84
2023-03-25T07:29:49.501Z,68.80
2023-03-25T07:32:16.760Z,68.29
2023-03-25T07:34:44.839Z,69.36
2023-03-25T07:37:21.935Z,68.32
2023-03-25T07:39:52.301Z,68.96
2023-03-25T07:42:22.191Z,71.23
2023-03-25T07:44:52.431Z,71.84
2023-03-25T07:47:19.879Z,71.09
2023-03-25T07:49:46.597Z,72.59
2023-03-25T07:52:17.183Z,72.67
2023-03-25T07:54:44.833Z,72.37
2023-03-25T07:57:14.335Z,71.70
2023-03-25T07:59:43.032Z,72.45
2023-03-25T08:02:13.457Z,73.47
2023-03-25T08:04:41.384Z,73.34
2023-03-25T08:07:11.726Z,72.82
2023-03-25T08:09:40.197Z,73.05
2023-03-25T08:12:08.817Z,72.81
2023-03-25T08:14:36.951Z,72.90
2023-03-25T08:17:15.190Z,73.66
2023-03-25T08:19:43.264Z,74.69
2023-03-25T08:22:09.986Z,74.60
2023-03-25T08:24:38.180Z,74.22
2023-03-25T08:27:14.924Z,72.45
2023-03-25T08:29:44.107Z,72.97
2023-03-25T08:32:13.598Z,73.20
2023-03-25T08:34:41.418Z,74.74
2023-03-25T08:37:10.016Z,73.71
2023-03-25T08:39:44.202Z,73.28
2023-03-25T08:42:12.431Z,73.20
2023-03-25T08:44:40.032Z,74.46
2023-03-25T08:47:07.533Z,75.45
2023-03-25T08:49:35.846Z,75.90
2023-03-25T08:52:10.591Z,76.19
2023-03-25T08:54:38.018Z,76.20
2023-03-25T08:57:05.347Z,77.15
2023-03-25T08:59:33.133Z,76.94
2023-03-25T09:02:02.857Z,77.03
2023-03-25T09:04:29.656Z,77.37
2023-03-25T09:07:10.487Z,77.00
2023-03-25T09:09:39.542Z,77.89
2023-03-25T09:12:06.635Z,76.65
2023-03-25T09:14:34.350Z,76.97
2023-03-25T09:17:01.023Z,75.94
2023-03-25T09:19:28.206Z,77.70
2023-03-25T09:21:55.304Z,76.62
2023-03-25T09:24:25.232Z,76.85
2023-03-25T09:26:52.292Z,77.34
2023-03-25T09:29:19.053Z,77.12
2023-03-25T09:31:46.090Z,76.83
2023-03-25T09:34:14.631Z,75.91
2023-03-25T09:36:45.774Z,76.28
2023-03-25T09:39:12.482Z,77.22
2023-03-25T09:42:12.338Z,76.69
2023-03-25T09:45:09.718Z,75.62
2023-03-25T09:47:38.492Z,75.59
2023-03-25T09:50:07.085Z,76.26
2023-03-25T09:52:42.080Z,75.51
2023-03-25T09:55:09.918Z,74.49
2023-03-25T09:57:47.583Z,74.62
2023-03-25T10:00:17.935Z,75.15
2023-03-25T10:03:01.051Z,74.59
2023-03-25T10:05:59.122Z,74.39
2023-03-25T10:09:00.512Z,71.67
2023-03-25T10:11:52.805Z,70.61
2023-03-25T10:14:45.782Z,71.42
2023-03-25T10:17:26.717Z,70.88
2023-03-25T10:20:17.045Z,71.93
2023-03-25T10:23:18.193Z,71.55
2023-03-25T10:25:45.942Z,71.25
2023-03-25T10:28:17.557Z,72.14
2023-03-25T10:30:51.822Z,72.32
2023-03-25T10:33:37.639Z,71.77
2023-03-25T10:36:06.273Z,70.02
2023-03-25T10:38:33.900Z,68.96
2023-03-25T10:41:26.886Z,69.70
2023-03-25T10:43:58.926Z,69.94
2023-03-25T10:46:35.270Z,68.98
2023-03-25T10:49:02.354Z,69.21
2023-03-25T10:51:30.354Z,69.69
2023-03-25T10:53:57.160Z,67.47
2023-03-25T10:56:46.347Z,68.63
2023-03-25T10:59:38.403Z,68.71
2023-03-25T11:02:18.493Z,67.52
2023-03-25T11:05:05.362Z,68.22
2023-03-25T11:07:36.557Z,68.17
2023-03-25T11:10:24.114Z,68.34
2023-03-25T11:12:51.592Z,67.57
2023-03-25T11:15:24.979Z,67.46
2023-03-25T11:18:06.370Z,67.45
2023-03-25T11:20:38.827Z,68.15
2023-03-25T11:23:08.197Z,68.57
2023-03-25T11:25:39.389Z,67.73
2023-03-25T11:28:30.130Z,67.56
2023-03-25T11:31:28.182Z,67.09
2023-03-25T11:34:18.314Z,66.97
2023-03-25T11:37:15.226Z,67.15
2023-03-25T11:39:41.993Z,67.57
2023-03-25T11:42:46.253Z,66.25
2023-03-25T11:45:20.854Z,62.84
2023-03-25T11:47:47.719Z,63.64
2023-03-25T11:50:26.920Z,64.88
2023-03-25T11:52:57.659Z,64.31
2023-03-25T11:55:37.523Z,66.57
2023-03-25T11:58:07.463Z,69.13
2023-03-25T12:00:41.055Z,67.80
2023-03-25T12:03:34.268Z,66.84
2023-03-25T12:06:06.185Z,64.92
2023-03-25T12:08:58.847Z,62.63
2023-03-25T12:11:32.958Z,64.54
2023-03-25T12:14:18.568Z,62.50
2023-03-25T12:16:50.320Z,64.04
2023-03-25T12:19:57.892Z,65.31
2023-03-25T12:22:31.901Z,64.83
2023-03-25T12:25:25.164Z,66.10
2023-03-25T12:28:32.809Z,67.27
2023-03-25T12:31:35.076Z,65.21
2023-03-25T12:34:38.336Z,66.06
2023-03-25T12:37:35.280Z,66.10
2023-03-25T12:40:27.520Z,66.46
2023-03-25T12:43:11.177Z,67.51
2023-03-25T12:45:56.455Z,66.91
2023-03-25T12:48:28.825Z,65.53
2023-03-25T12:51:06.490Z,66.08
2023-03-25T12:54:01.033Z,63.69
2023-03-25T12:57:07.152Z,65.43
2023-03-25T12:59:37.958Z,65.81
2023-03-25T13:02:46.130Z,65.14
2023-03-25T13:05:39.198Z,66.42
2023-03-25T13:08:30.403Z,65.50
2023-03-25T13:11:11.768Z,65.19
2023-03-25T13:13:39.066Z,65.75
2023-03-25T13:16:10.237Z,64.75
2023-03-25T13:18:56.468Z,64.52
2023-03-25T13:21:26.220Z,63.42
2023-03-25T13:23:58.706Z,62.96
2023-03-25T13:26:27.946Z,62.56
2023-03-25T13:29:06.102Z,62.76
2023-03-25T13:31:34.963Z,63.34
2023-03-25T13:34:36.078Z,66.17
2023-03-25T13:37:08.922Z,63.77
2023-03-25T13:40:20.930Z,64.07
2023-03-25T13:42:59.538Z,64.09
2023-03-25T13:45:26.291Z,63.09
2023-03-25T13:48:20.185Z,63.73
2023-03-25T13:50:47.012Z,62.17
2023-03-25T13:53:18.498Z,60.49
2023-03-25T13:55:49.411Z,58.73
2023-03-25T13:58:29.051Z,57.06
2023-03-25T14:01:16.468Z,57.61
2023-03-25T14:03:56.173Z,56.91
2023-03-25T14:06:49.317Z,57.33
2023-03-25T14:09:45.444Z,57.41
2023-03-25T14:12:26.188Z,58.11
2023-03-25T14:15:25.984Z,57.25
2023-03-25T14:17:52.863Z,57.53
2023-03-25T14:20:24.252Z,56.34
2023-03-25T14:22:58.948Z,56.26
2023-03-25T14:25:29.465Z,54.46
2023-03-25T14:27:58.636Z,55.81
2023-03-25T14:30:28.174Z,55.04
2023-03-25T14:32:56.414Z,55.96
2023-03-25T14:35:35.256Z,55.25
2023-03-25T14:38:13.371Z,56.45
2023-03-25T14:40:55.507Z,57.31
2023-03-25T14:43:33.731Z,57.43
2023-03-25T14:46:12.415Z,58.82
2023-03-25T14:48:42.224Z,59.14
2023-03-25T14:51:27.269Z,60.55
2023-03-25T14:54:20.423Z,60.40
2023-03-25T14:57:05.182Z,60.42
2023-03-25T14:59:36.387Z,59.29
2023-03-25T15:02:17.585Z,58.76
2023-03-25T15:04:52.842Z,59.69
2023-03-25T15:07:39.311Z,59.79
2023-03-25T15:10:07.509Z,60.26
2023-03-25T15:12:37.203Z,59.97
2023-03-25T15:15:08.822Z,60.07
2023-03-25T15:17:58.415Z,60.80
2023-03-25T15:20:28.443Z,60.18
2023-03-25T15:23:33.484Z,59.40
2023-03-25T15:26:03.348Z,59.36
2023-03-25T15:29:31.646Z,59.48
2023-03-25T15:32:58.709Z,59.28
2023-03-25T15:35:50.311Z,57.83
2023-03-25T15:38:47.200Z,57.73
2023-03-25T15:41:39.685Z,56.16
2023-03-25T15:44:28.543Z,56.11
2023-03-25T15:47:07.608Z,55.37
2023-03-25T15:50:05.640Z,54.73
2023-03-25T15:53:17.236Z,54.46
2023-03-25T15:56:12.446Z,54.75
2023-03-25T15:58:43.604Z,54.67
2023-03-25T16:01:28.582Z,52.28
2023-03-25T16:04:21.518Z,55.93
2023-03-25T16:06:51.472Z,54.72
2023-03-25T16:09:23.526Z,54.50
2023-03-25T16:11:50.217Z,54.94
2023-03-25T16:14:18.996Z,54.82
2023-03-25T16:16:50.680Z,55.63
2023-03-25T16:19:19.959Z,55.19
2023-03-25T16:21:50.492Z,53.84
2023-03-25T16:24:25.038Z,53.71
2023-03-25T16:26:59.174Z,53.19
2023-03-25T16:29:30.198Z,52.94
2023-03-25T16:32:21.130Z,52.38
2023-03-25T16:34:47.908Z,52.34
2023-03-25T16:37:14.706Z,52.88
2023-03-25T16:39:42.120Z,50.97
2023-03-25T16:42:41.692Z,51.40
2023-03-25T16:45:10.603Z,51.16
2023-03-25T16:47:37.450Z,51.57
2023-03-25T16:50:07.705Z,52.27
2023-03-25T16:52:35.099Z,52.22
2023-03-25T16:55:33.359Z,54.12
2023-03-25T16:58:02.562Z,51.34
2023-03-25T17:00:39.941Z,54.13
2023-03-25T17:03:12.132Z,53.81
2023-03-25T17:05:57.281Z,52.70
2023-03-25T17:08:24.211Z,53.13
2023-03-25T17:11:00.350Z,53.68
2023-03-25T17:17:10.346Z,52.93
2023-03-25T17:19:47.663Z,53.14
2023-03-25T17:22:27.529Z,53.78
2023-03-25T17:24:56.958Z,53.13
2023-03-25T17:27:34.000Z,54.78
2023-03-25T17:30:14.611Z,55.93
2023-03-25T17:32:42.466Z,55.53
2023-03-25T17:35:20.817Z,55.52
2023-03-25T17:37:49.158Z,54.04
2023-03-25T17:40:28.742Z,56.18
2023-03-25T17:42:55.815Z,55.54
2023-03-25T17:45:23.111Z,56.90
2023-03-25T17:47:50.306Z,56.65
2023-03-25T17:50:24.720Z,56.91
2023-03-25T17:52:53.100Z,58.14
2023-03-25T17:55:20.469Z,59.89
2023-03-25T17:57:47.280Z,59.90
2023-03-25T18:00:15.513Z,60.05
2023-03-25T18:02:42.859Z,58.51
2023-03-25T18:05:16.532Z,59.07
2023-03-25T18:07:46.113Z,59.80
2023-03-25T18:10:15.643Z,60.78
2023-03-25T18:12:45.307Z,60.79
2023-03-25T18:15:12.101Z,59.76
2023-03-25T18:17:39.580Z,60.64
2023-03-25T18:20:19.261Z,60.22
2023-03-25T18:23:04.957Z,58.10
2023-03-25T18:25:34.686Z,57.95
2023-03-25T18:28:04.612Z,57.04
2023-03-25T18:30:41.326Z,57.65
2023-03-25T18:33:08.092Z,57.10
2023-03-25T18:35:36.621Z,56.84
2023-03-25T18:38:03.336Z,56.92
2023-03-25T18:40:37.552Z,58.16
2023-03-25T18:43:04.498Z,57.42
2023-03-25T18:45:32.459Z,58.01
2023-03-25T18:47:59.559Z,56.52
2023-03-25T18:50:37.135Z,56.07
2023-03-25T18:53:05.010Z,56.52
2023-03-25T18:55:32.798Z,56.42
2023-03-25T18:57:59.912Z,56.14
2023-03-25T19:00:30.085Z,54.90
2023-03-25T19:02:59.996Z,56.53
2023-03-25T19:05:26.940Z,57.63
2023-03-25T19:07:53.645Z,55.69
2023-03-25T19:10:25.200Z,59.27
2023-03-25T19:12:52.633Z,62.06
2023-03-25T19:16:01.249Z,60.54
2023-03-25T19:18:51.872Z,59.85
2023-03-25T19:24:36.385Z,58.19
2023-03-25T19:27:06.719Z,57.19
2023-03-25T19:29:34.337Z,57.37
2023-03-25T19:32:04.205Z,56.07
2023-03-25T19:34:30.927Z,56.13
2023-03-25T19:36:57.932Z,58.90
2023-03-25T19:39:28.245Z,56.90
2023-03-25T19:41:55.559Z,58.65
2023-03-25T19:44:24.111Z,58.03
2023-03-25T19:46:50.911Z,57.05
2023-03-25T19:49:26.072Z,57.26
2023-03-25T19:52:03.442Z,58.99
2023-03-25T19:54:31.326Z,60.07
2023-03-25T19:56:58.082Z,59.42
2023-03-25T19:59:25.106Z,62.74
2023-03-25T20:01:52.000Z,61.45
2023-03-25T20:04:19.257Z,63.60
2023-03-25T20:06:46.138Z,65.73
2023-03-25T20:09:15.645Z,66.30
2023-03-25T20:11:43.557Z,67.29
2023-03-25T20:14:13.368Z,68.49
2023-03-25T20:16:40.498Z,68.75
2023-03-25T20:19:07.681Z,67.56
2023-03-25T20:21:35.630Z,68.80
2023-03-25T20:24:09.580Z,68.47
2023-03-25T20:26:37.308Z,68.39
2023-03-25T20:29:05.891Z,67.24
2023-03-25T20:31:33.656Z,66.75
2023-03-25T20:34:00.752Z,68.07
2023-03-25T20:36:27.590Z,67.72
2023-03-25T20:38:58.065Z,67.23
2023-03-25T20:41:26.050Z,67.77
2023-03-25T20:43:53.259Z,69.11
2023-03-25T20:46:20.524Z,68.24
2023-03-25T20:48:48.064Z,67.99
2023-03-25T20:51:15.172Z,67.67
2023-03-25T20:53:42.280Z,68.48
2023-03-25T20:56:12.229Z,68.80
2023-03-25T20:58:39.323Z,69.27
2023-03-25T21:01:07.049Z,69.55
2023-03-25T21:03:34.133Z,69.47
2023-03-25T21:06:07.417Z,69.91
2023-03-25T21:08:40.630Z,68.71
2023-03-25T21:11:07.430Z,69.53
2023-03-25T21:13:38.218Z,69.91
2023-03-25T21:16:06.519Z,70.45
2023-03-25T21:18:33.211Z,70.50
2023-03-25T21:21:05.778Z,71.19
2023-03-25T21:23:35.358Z,70.74
2023-03-25T21:26:03.988Z,70.72
2023-03-25T21:28:33.547Z,70.58
2023-03-25T21:31:09.870Z,69.45
2023-03-25T21:33:38.120Z,69.79
2023-03-25T21:36:06.288Z,68.98
2023-03-25T21:38:33.840Z,69.80
2023-03-25T21:41:01.634Z,68.96
2023-03-25T21:43:28.645Z,69.32
2023-03-25T21:45:57.510Z,68.39
2023-03-25T21:48:32.489Z,69.25
2023-03-25T21:51:02.578Z,69.95
2023-03-25T21:53:29.733Z,69.81
2023-03-25T21:55:56.983Z,70.80
2023-03-25T21:58:27.916Z,71.08
2023-03-25T22:01:09.115Z,71.11
2023-03-25T22:03:40.167Z,70.00
2023-03-25T22:06:13.406Z,69.66
2023-03-25T22:08:48.801Z,70.35
2023-03-25T22:11:20.946Z,69.12
2023-03-25T22:13:48.473Z,70.06
2023-03-25T22:16:16.275Z,69.75
2023-03-25T22:18:45.758Z,69.93
2023-03-25T22:21:20.389Z,70.96
2023-03-25T22:23:47.866Z,69.61
2023-03-25T22:26:15.911Z,68.99
2023-03-25T22:28:44.194Z,69.51
2023-03-25T22:31:12.293Z,69.16
2023-03-25T22:33:39.157Z,68.81
2023-03-25T22:36:08.526Z,68.59
2023-03-25T22:38:36.312Z,68.51
2023-03-25T22:41:06.394Z,68.46
2023-03-25T22:43:36.262Z,68.10
2023-03-25T22:46:03.972Z,67.42
2023-03-25T22:48:30.993Z,66.94
2023-03-25T22:50:57.712Z,66.66
2023-03-25T22:53:38.527Z,68.59
2023-03-25T22:56:06.579Z,68.31
2023-03-25T22:58:35.080Z,67.31
2023-03-25T23:01:04.126Z,67.97
2023-03-25T23:03:32.535Z,67.19
2023-03-25T23:06:01.921Z,67.46
2023-03-25T23:08:32.652Z,68.80
2023-03-25T23:11:01.065Z,68.16
2023-03-25T23:13:29.244Z,68.76
2023-03-25T23:15:59.490Z,69.31
2023-03-25T23:18:26.435Z,69.55
2023-03-25T23:20:54.166Z,68.19
2023-03-25T23:23:21.421Z,67.68
2023-03-25T23:26:04.403Z,68.92
2023-03-25T23:28:32.171Z,68.77
2023-03-25T23:31:01.939Z,68.31
2023-03-25T23:33:30.137Z,67.48
2023-03-25T23:36:04.570Z,67.19
2023-03-25T23:38:51.996Z,69.74
2023-03-25T23:41:19.893Z,68.21
2023-03-25T23:43:47.904Z,68.06
2023-03-25T23:46:15.595Z,65.40
2023-03-25T23:48:43.006Z,67.89
2023-03-25T23:51:24.283Z,66.85
2023-03-25T23:53:52.792Z,64.18
2023-03-25T23:56:27.809Z,62.47
2023-03-25T23:58:55.606Z,61.98
